Time;durP1;ratioP1;P1;durP2;ratioP2;P2;SDS_P1;SDS_P2;PMS_P1;PMS_P2;Temp;Humidity;BMP_temperature;BMP_pressure;BME280_temperature;BME280_humidity;BME280_pressure;Samples;Min_cycle;Max_cycle;Signal;HPM_P1;HPM_P2
2021/10/26 00:01:05;;;;;;;11.57;8.37;;;;;;;8.48;89.75;96012.06;5056685;28;20185;-77
2021/10/26 00:03:30;;;;;;;8.90;7.97;;;;;;;8.42;89.76;96015.16;5056811;28;20181;-79
2021/10/26 00:05:56;;;;;;;11.07;8.13;;;;;;;8.39;90.11;96010.19;5056836;28;20209;-78
2021/10/26 00:08:21;;;;;;;9.93;8.33;;;;;;;8.36;90.54;96011.28;5056850;28;20214;-77
2021/10/26 00:10:46;;;;;;;11.17;8.73;;;;;;;8.37;90.39;96014.69;5040650;28;20625;-78
2021/10/26 00:13:12;;;;;;;10.37;8.03;;;;;;;8.36;90.22;96013.03;5038321;28;20665;-78
2021/10/26 00:15:38;;;;;;;14.77;8.80;;;;;;;8.41;90.19;96018.69;5056686;28;20174;-78
2021/10/26 00:18:03;;;;;;;10.63;8.97;;;;;;;8.45;90.62;96022.66;5038818;28;20205;-77
2021/10/26 00:20:31;;;;;;;12.10;9.20;;;;;;;8.46;90.70;96014.75;5038527;28;20258;-79
2021/10/26 00:22:56;;;;;;;15.83;8.93;;;;;;;8.48;90.55;96022.41;5058559;28;20170;-79
2021/10/26 00:25:21;;;;;;;9.60;8.30;;;;;;;8.57;90.47;96020.84;5056202;28;20570;-79
2021/10/26 00:27:46;;;;;;;12.17;8.27;;;;;;;8.53;90.30;96015.09;5056671;28;20189;-79
2021/10/26 00:30:12;;;;;;;12.43;9.13;;;;;;;8.53;90.60;96017.69;5059497;28;20199;-79
2021/10/26 00:32:37;;;;;;;13.00;8.67;;;;;;;8.51;90.69;96017.00;5060103;28;20182;-79
2021/10/26 00:35:04;;;;;;;12.50;9.10;;;;;;;8.54;90.80;96021.91;5034164;28;20182;-79
2021/10/26 00:37:30;;;;;;;10.80;9.27;;;;;;;8.55;91.25;96025.31;5035998;28;20232;-79
2021/10/26 00:39:55;;;;;;;12.10;9.90;;;;;;;8.58;91.85;96025.09;5020418;28;20590;-79
2021/10/26 00:42:20;;;;;;;12.47;9.63;;;;;;;8.62;91.84;96026.47;5037255;28;20175;-79
2021/10/26 00:44:46;;;;;;;14.27;10.27;;;;;;;8.62;91.47;96023.91;5036250;28;20592;-79
2021/10/26 00:47:11;;;;;;;10.73;9.63;;;;;;;8.66;91.42;96027.91;5036580;28;20194;-79
2021/10/26 00:49:36;;;;;;;11.10;9.60;;;;;;;8.65;91.42;96029.63;5060589;28;20206;-79
2021/10/26 00:52:03;;;;;;;14.00;9.20;;;;;;;8.65;91.87;96032.22;5041530;28;20555;-79
2021/10/26 00:54:28;;;;;;;12.90;9.57;;;;;;;8.65;91.90;96028.81;5036859;28;20232;-79
2021/10/26 00:56:53;;;;;;;12.93;9.80;;;;;;;8.63;91.30;96034.13;5036923;28;20182;-79
2021/10/26 00:59:19;;;;;;;12.57;9.53;;;;;;;8.64;91.81;96043.53;5036811;28;20197;-79
2021/10/26 01:01:45;;;;;;;13.17;10.30;;;;;;;8.63;92.12;96039.31;5019993;28;20174;-79
2021/10/26 01:04:11;;;;;;;15.77;9.73;;;;;;;8.65;91.71;96042.59;5036193;28;20177;-80
2021/10/26 01:06:36;;;;;;;12.73;10.47;;;;;;;8.67;91.79;96040.72;5053115;28;20669;-79
2021/10/26 01:09:03;;;;;;;13.90;10.23;;;;;;;8.73;91.70;96029.84;5037096;28;20582;-79
2021/10/26 01:11:29;;;;;;;10.27;8.63;;;;;;;8.68;91.61;96039.75;5033656;28;20304;-79
2021/10/26 01:13:55;;;;;;;12.63;9.60;;;;;;;8.66;92.44;96039.06;5034842;28;20175;-79
2021/10/26 01:16:20;;;;;;;15.67;10.73;;;;;;;8.63;92.82;96038.47;5034798;28;20194;-79
2021/10/26 01:18:45;;;;;;;11.67;9.00;;;;;;;8.63;92.63;96033.31;5036324;28;20500;-79
2021/10/26 01:21:11;;;;;;;15.73;11.03;;;;;;;8.59;93.04;96032.75;5034747;28;20196;-79
2021/10/26 01:23:36;;;;;;;11.50;9.17;;;;;;;8.59;92.68;96039.69;5017121;28;20240;-80
2021/10/26 01:26:02;;;;;;;13.20;9.63;;;;;;;8.58;92.76;96036.28;5034642;28;20249;-79
2021/10/26 01:28:27;;;;;;;17.33;9.80;;;;;;;8.54;92.79;96036.63;5035567;28;20230;-79
2021/10/26 01:30:53;;;;;;;16.13;10.77;;;;;;;8.52;93.17;96035.00;5017829;28;20547;-79
2021/10/26 01:33:19;;;;;;;14.17;9.70;;;;;;;8.53;93.27;96035.81;5034758;28;20252;-79
2021/10/26 01:35:44;;;;;;;14.67;10.77;;;;;;;8.55;93.21;96038.28;5034128;28;20174;-79
2021/10/26 01:38:10;;;;;;;16.10;12.13;;;;;;;8.55;93.42;96039.09;5034507;28;20214;-79
2021/10/26 01:40:36;;;;;;;14.00;11.27;;;;;;;8.53;93.42;96043.56;5034681;28;20174;-79
2021/10/26 01:43:02;;;;;;;13.17;10.63;;;;;;;8.52;93.47;96042.75;5035798;28;20837;-79
2021/10/26 01:45:28;;;;;;;13.07;10.90;;;;;;;8.52;93.49;96047.13;5034093;28;20804;-79
2021/10/26 01:47:53;;;;;;;14.77;12.10;;;;;;;8.51;93.74;96046.28;5034771;28;20230;-80
2021/10/26 01:50:19;;;;;;;17.07;12.37;;;;;;;8.52;94.01;96044.53;5033513;28;20673;-77
2021/10/26 01:52:45;;;;;;;13.23;11.60;;;;;;;8.52;93.85;96041.94;5033940;28;20171;-78
2021/10/26 01:55:11;;;;;;;14.90;11.73;;;;;;;8.60;93.80;96044.72;5016902;28;20179;-78
2021/10/26 01:57:37;;;;;;;14.17;10.77;;;;;;;8.61;93.68;96042.97;5050440;28;20178;-78
2021/10/26 02:00:11;;;;;;;16.17;10.90;;;;;;;8.58;93.71;96041.44;5033802;28;20318;-78
2021/10/26 02:02:36;;;;;;;15.57;10.93;;;;;;;8.57;94.08;96036.38;5035647;28;20190;-79
2021/10/26 02:05:03;;;;;;;15.93;9.90;;;;;;;8.56;93.93;96040.72;5036102;28;20201;-79
2021/10/26 02:07:29;;;;;;;13.57;9.33;;;;;;;8.57;93.96;96033.78;5036962;28;20643;-79
2021/10/26 02:09:54;;;;;;;12.73;10.13;;;;;;;8.54;93.87;96044.41;5018286;28;20182;-78
2021/10/26 02:12:21;;;;;;;10.37;7.93;;;;;;;8.55;93.79;96033.91;5031528;28;20699;-79
2021/10/26 02:14:46;;;;;;;12.67;9.10;;;;;;;8.50;94.03;96029.13;5032352;28;20290;-79
2021/10/26 02:17:11;;;;;;;10.00;7.70;;;;;;;8.52;93.86;96039.34;5033179;28;20265;-78
2021/10/26 02:19:36;;;;;;;10.30;7.63;;;;;;;8.54;93.91;96041.81;5032867;28;20263;-79
2021/10/26 02:22:02;;;;;;;12.03;8.10;;;;;;;8.54;93.79;96034.88;5033091;28;20179;-78
2021/10/26 02:24:27;;;;;;;11.73;6.80;;;;;;;8.53;93.31;96041.00;5032489;28;20625;-79
2021/10/26 02:26:53;;;;;;;9.93;6.53;;;;;;;8.54;93.46;96041.81;5033073;28;20189;-78
2021/10/26 02:29:18;;;;;;;7.87;6.10;;;;;;;8.49;93.40;96037.84;5032733;28;20198;-79
2021/10/26 02:31:43;;;;;;;10.70;6.70;;;;;;;8.45;93.58;96045.94;5032816;28;20171;-78
2021/10/26 02:34:09;;;;;;;8.83;6.47;;;;;;;8.42;93.44;96046.22;5031993;28;20664;-78
2021/10/26 02:36:35;;;;;;;7.13;5.83;;;;;;;8.41;93.59;96053.16;5032762;28;20626;-78
2021/10/26 02:39:01;;;;;;;9.77;5.70;;;;;;;8.37;93.49;96053.50;5032716;28;20193;-78
2021/10/26 02:41:26;;;;;;;8.53;6.10;;;;;;;8.35;93.62;96065.75;5032702;28;20181;-78
2021/10/26 02:43:51;;;;;;;9.37;5.97;;;;;;;8.34;93.83;96064.06;5015972;28;20583;-78
2021/10/26 02:46:17;;;;;;;8.77;5.93;;;;;;;8.33;93.67;96052.09;5032821;28;20194;-78
2021/10/26 02:48:42;;;;;;;10.17;6.27;;;;;;;8.34;93.86;96053.72;5032683;28;20202;-79
2021/10/26 02:51:10;;;;;;;8.30;6.10;;;;;;;8.36;93.78;96051.88;5050082;28;20757;-78
2021/10/26 02:53:36;;;;;;;10.80;5.93;;;;;;;8.31;93.68;96044.44;5032374;28;20642;-79
2021/10/26 02:56:01;;;;;;;10.37;6.17;;;;;;;8.34;93.61;96048.53;5033082;28;20170;-79
2021/10/26 02:58:27;;;;;;;9.47;5.83;;;;;;;8.34;93.62;96048.53;5016417;28;20272;-79
2021/10/26 03:00:52;;;;;;;8.80;6.23;;;;;;;8.33;93.37;96047.72;5034822;28;20179;-78
2021/10/26 03:03:18;;;;;;;10.10;5.90;;;;;;;8.32;93.34;96046.09;5035261;28;20175;-78
2021/10/26 03:05:43;;;;;;;8.93;5.37;;;;;;;8.35;92.66;96045.03;5034879;28;20194;-78
2021/10/26 03:08:09;;;;;;;9.00;5.70;;;;;;;8.34;92.92;96046.78;5035553;28;20378;-78
2021/10/26 03:10:34;;;;;;;8.23;5.57;;;;;;;8.33;92.77;96052.09;5036408;28;20569;-78
2021/10/26 03:13:00;;;;;;;9.93;6.03;;;;;;;8.30;92.68;96049.72;5034441;28;20175;-78
2021/10/26 03:15:25;;;;;;;9.77;5.43;;;;;;;8.27;92.89;96053.38;5034492;28;20233;-78
2021/10/26 03:17:51;;;;;;;6.80;5.77;;;;;;;8.27;92.89;96048.19;5052194;28;20252;-78
2021/10/26 03:20:16;;;;;;;7.60;5.53;;;;;;;8.25;92.82;96050.09;5018525;28;20184;-78
2021/10/26 03:22:41;;;;;;;10.20;5.23;;;;;;;8.23;92.85;96054.56;5035702;28;20182;-79
2021/10/26 03:25:07;;;;;;;9.27;5.50;;;;;;;8.22;93.21;96052.94;5035066;28;20583;-78
2021/10/26 03:27:35;;;;;;;8.53;5.33;;;;;;;8.23;92.84;96057.16;5032169;28;20191;-78
2021/10/26 03:30:00;;;;;;;7.60;5.20;;;;;;;8.24;92.96;96058.81;5031781;28;20182;-79
2021/10/26 03:32:27;;;;;;;7.17;5.53;;;;;;;8.24;93.00;96063.97;5033499;28;20662;-78
2021/10/26 03:34:52;;;;;;;6.10;5.50;;;;;;;8.22;93.09;96058.09;5031615;28;20254;-79
2021/10/26 03:37:17;;;;;;;9.40;6.20;;;;;;;8.23;93.31;96063.16;5015604;28;20179;-78
2021/10/26 03:39:44;;;;;;;8.23;5.70;;;;;;;8.27;93.21;96065.50;5032024;28;20202;-78
2021/10/26 03:42:09;;;;;;;10.20;5.60;;;;;;;8.28;93.12;96059.38;5032522;28;20718;-78
2021/10/26 03:44:35;;;;;;;7.77;5.23;;;;;;;8.27;92.95;96068.91;5031480;28;20213;-79
2021/10/26 03:47:00;;;;;;;7.37;4.57;;;;;;;8.37;92.23;96069.84;5032450;28;20189;-79
2021/10/26 03:49:25;;;;;;;9.63;4.80;;;;;;;8.31;92.60;96059.16;5033740;28;20662;-78
2021/10/26 03:51:51;;;;;;;8.63;4.90;;;;;;;8.30;92.76;96071.25;5032780;28;20174;-78
2021/10/26 03:54:16;;;;;;;9.50;4.93;;;;;;;8.34;92.63;96074.44;5031615;28;20182;-79
2021/10/26 03:56:41;;;;;;;8.63;4.27;;;;;;;8.33;92.61;96078.78;5032353;28;20175;-79
2021/10/26 03:59:09;;;;;;;6.10;4.77;;;;;;;8.34;92.65;96082.19;5032120;28;20191;-78
2021/10/26 04:01:36;;;;;;;9.30;4.60;;;;;;;8.38;92.36;96078.44;5032443;28;20179;-78
2021/10/26 04:04:02;;;;;;;7.47;4.70;;;;;;;8.33;92.63;96077.97;5032388;28;20175;-79
2021/10/26 04:06:28;;;;;;;7.70;4.40;;;;;;;8.32;92.97;96077.13;5032800;28;20281;-78
2021/10/26 04:09:03;;;;;;;8.70;5.13;;;;;;;8.33;92.68;96083.13;5032713;28;20253;-78
2021/10/26 04:11:29;;;;;;;8.67;4.63;;;;;;;8.32;92.85;96081.50;5030343;28;20173;-79
2021/10/26 04:13:54;;;;;;;6.60;4.67;;;;;;;8.33;92.69;96083.13;5031440;28;20575;-78
2021/10/26 04:16:21;;;;;;;7.07;5.23;;;;;;;8.34;92.81;96087.38;5015795;28;20171;-78
2021/10/26 04:18:47;;;;;;;7.70;4.67;;;;;;;8.34;92.79;96092.53;5031997;28;20731;-78
2021/10/26 04:21:13;;;;;;;7.47;4.30;;;;;;;8.33;92.94;96077.97;5031818;28;20686;-78
2021/10/26 04:23:39;;;;;;;7.83;4.50;;;;;;;8.34;92.75;96077.00;5030980;28;20175;-78
2021/10/26 04:26:05;;;;;;;9.60;4.80;;;;;;;8.31;92.67;96085.84;5032208;28;20294;-79
2021/10/26 04:28:31;;;;;;;7.30;4.40;;;;;;;8.33;92.31;96083.94;5033264;28;20264;-78
2021/10/26 04:31:00;;;;;;;9.43;5.10;;;;;;;8.32;92.81;96091.84;5032848;28;20187;-79
2021/10/26 04:33:25;;;;;;;7.97;5.13;;;;;;;8.34;92.72;96095.13;5051832;28;20261;-78
2021/10/26 04:35:50;;;;;;;6.87;5.13;;;;;;;8.34;92.71;96098.53;5036105;28;20206;-79
2021/10/26 04:38:16;;;;;;;10.17;9.07;;;;;;;8.37;92.48;96098.31;5035875;28;20202;-79
2021/10/26 04:40:41;;;;;;;14.43;12.93;;;;;;;8.39;92.14;96093.88;5036880;28;20255;-79
2021/10/26 04:43:06;;;;;;;10.70;7.80;;;;;;;8.35;92.43;96091.63;5037113;28;20179;-78
2021/10/26 04:45:32;;;;;;;8.67;6.80;;;;;;;8.37;92.12;96089.72;5035357;28;20213;-79
2021/10/26 04:47:58;;;;;;;8.70;5.27;;;;;;;8.36;92.32;96098.44;5022325;28;20670;-78
2021/10/26 04:50:23;;;;;;;10.03;5.70;;;;;;;8.36;91.73;96094.09;5039119;28;20178;-79
2021/10/26 04:52:49;;;;;;;9.50;6.37;;;;;;;8.39;91.59;96090.44;5038138;28;20189;-78
2021/10/26 04:55:14;;;;;;;14.83;6.33;;;;;;;8.37;91.59;96089.72;5036333;28;20179;-79
2021/10/26 04:57:41;;;;;;;6.33;4.47;;;;;;;8.35;91.37;96089.03;5038208;28;20202;-79
2021/10/26 05:00:08;;;;;;;17.67;11.40;;;;;;;8.39;91.10;96090.44;5021312;28;20181;-79
2021/10/26 05:02:34;;;;;;;11.63;7.23;;;;;;;8.35;90.89;96094.22;5037369;28;20182;-79
2021/10/26 05:04:59;;;;;;;13.40;8.03;;;;;;;8.32;90.90;96097.03;5036449;28;20353;-79
2021/10/26 05:07:24;;;;;;;7.23;5.23;;;;;;;8.32;91.03;96091.84;5035092;28;20193;-78
2021/10/26 05:09:50;;;;;;;7.27;4.43;;;;;;;8.28;90.55;96095.59;5034400;28;20574;-78
2021/10/26 05:12:15;;;;;;;10.90;7.20;;;;;;;8.24;90.56;96095.84;5035883;28;20598;-78
2021/10/26 05:14:40;;;;;;;48.07;32.43;;;;;;;8.27;90.75;96099.94;5017584;28;20542;-78
2021/10/26 05:17:06;;;;;;;24.57;18.50;;;;;;;8.22;90.88;96100.31;5034891;28;20189;-80
2021/10/26 05:19:33;;;;;;;9.93;7.83;;;;;;;8.20;91.09;96101.38;5035643;28;20202;-78
2021/10/26 05:21:58;;;;;;;9.03;4.13;;;;;;;8.16;90.74;96099.97;5018823;28;20589;-79
2021/10/26 05:24:30;;;;;;;6.97;3.70;;;;;;;8.14;90.70;96105.28;5034688;28;20190;-78
2021/10/26 05:26:55;;;;;;;7.23;4.00;;;;;;;8.12;91.21;96096.78;5035465;28;20179;-79
2021/10/26 05:29:21;;;;;;;7.10;4.20;;;;;;;8.06;90.83;96096.47;5034623;28;20209;-78
2021/10/26 05:31:46;;;;;;;9.00;3.60;;;;;;;8.01;91.20;96099.38;5034722;28;20213;-80
2021/10/26 05:34:11;;;;;;;6.20;4.00;;;;;;;7.97;91.21;96098.00;5026018;28;20216;-80
2021/10/26 05:36:37;;;;;;;5.30;3.57;;;;;;;7.93;91.32;96102.56;5026998;28;20194;-80
2021/10/26 05:39:05;;;;;;;5.07;3.17;;;;;;;7.91;91.55;96091.53;5040503;28;20554;-81
2021/10/26 05:41:31;;;;;;;8.70;3.70;;;;;;;7.90;91.80;96091.63;5022725;28;20235;-79
2021/10/26 05:43:56;;;;;;;7.00;3.57;;;;;;;7.84;91.35;96098.09;5029926;28;20174;-79
2021/10/26 05:46:21;;;;;;;6.20;3.30;;;;;;;7.82;91.68;96099.16;5041373;28;20232;-78
2021/10/26 05:48:46;;;;;;;5.70;3.77;;;;;;;7.79;91.50;96102.00;5050704;28;20208;-79
2021/10/26 05:51:12;;;;;;;5.20;3.47;;;;;;;7.74;91.59;96107.50;5032140;28;20186;-78
2021/10/26 05:53:37;;;;;;;4.90;3.23;;;;;;;7.72;91.71;96105.97;5025962;28;20185;-79
2021/10/26 05:56:03;;;;;;;5.47;3.77;;;;;;;7.69;91.86;96114.78;5044133;28;20178;-78
2021/10/26 05:58:28;;;;;;;4.93;3.87;;;;;;;7.67;92.05;96114.88;5043269;28;20240;-79
2021/10/26 06:00:54;;;;;;;8.03;5.30;;;;;;;7.66;91.66;96120.19;5027447;28;20194;-79
2021/10/26 06:03:20;;;;;;;11.40;5.70;;;;;;;7.63;92.03;96121.25;5042464;28;20214;-80
2021/10/26 06:05:45;;;;;;;7.23;5.43;;;;;;;7.61;92.29;96117.94;5028868;28;20744;-79
2021/10/26 06:08:10;;;;;;;15.87;7.60;;;;;;;7.60;92.42;96120.66;5035860;28;20299;-78
2021/10/26 06:10:41;;;;;;;12.00;6.53;;;;;;;7.60;92.72;96131.00;5033195;28;20219;-79
2021/10/26 06:13:10;;;;;;;11.40;6.30;;;;;;;7.57;92.74;96133.78;5047405;28;20182;-81
2021/10/26 06:15:36;;;;;;;6.83;5.00;;;;;;;7.58;92.78;96130.25;5046826;28;20229;-80
2021/10/26 06:18:02;;;;;;;8.90;5.00;;;;;;;7.57;92.88;96139.78;5035415;28;20744;-79
2021/10/26 06:20:27;;;;;;;6.53;4.40;;;;;;;7.60;92.81;96141.34;5026408;28;20190;-79
2021/10/26 06:22:52;;;;;;;7.67;4.00;;;;;;;7.62;93.00;96140.28;5042440;28;20186;-79
2021/10/26 06:25:18;;;;;;;6.67;4.50;;;;;;;7.67;92.97;96150.25;5024194;28;20225;-78
2021/10/26 06:27:43;;;;;;;15.23;5.23;;;;;;;7.71;92.86;96145.69;5038518;28;20653;-78
2021/10/26 06:30:08;;;;;;;9.37;4.23;;;;;;;7.75;92.68;96149.69;5038695;28;20186;-79
2021/10/26 06:32:34;;;;;;;7.13;3.80;;;;;;;7.75;92.66;96150.50;5039817;28;20175;-79
2021/10/26 06:34:59;;;;;;;7.67;4.20;;;;;;;7.77;92.84;96150.38;5034930;28;20179;-78
2021/10/26 06:37:25;;;;;;;5.93;3.77;;;;;;;7.82;92.83;96161.22;5051199;28;20674;-78
2021/10/26 06:39:54;;;;;;;8.03;3.83;;;;;;;7.83;92.73;96158.50;5047367;28;20292;-78
2021/10/26 06:42:20;;;;;;;5.53;3.23;;;;;;;7.85;92.55;96166.16;5035185;28;20175;-79
2021/10/26 06:44:45;;;;;;;7.30;4.20;;;;;;;7.86;92.47;96171.22;5052048;28;20198;-79
2021/10/26 06:47:10;;;;;;;3.73;3.33;;;;;;;7.88;92.70;96171.09;5028457;28;20195;-78
2021/10/26 06:49:36;;;;;;;7.47;3.83;;;;;;;7.92;92.59;96175.09;5058746;28;20223;-78
2021/10/26 06:52:02;;;;;;;5.57;3.80;;;;;;;7.93;92.65;96176.72;5056977;28;20186;-78
2021/10/26 06:54:29;;;;;;;7.80;3.60;;;;;;;7.96;92.48;96184.28;5043867;28;20200;-79
2021/10/26 06:56:54;;;;;;;8.30;4.83;;;;;;;7.95;92.87;96183.47;5039295;28;20234;-79
2021/10/26 06:59:20;;;;;;;6.30;3.90;;;;;;;8.01;92.97;96187.31;5050706;28;20205;-78
2021/10/26 07:01:45;;;;;;;8.00;4.80;;;;;;;8.05;92.82;96186.16;5037382;28;20186;-78
2021/10/26 07:04:10;;;;;;;7.67;3.97;;;;;;;8.09;92.60;96194.50;5055403;28;20236;-79
2021/10/26 07:06:35;;;;;;;5.97;4.27;;;;;;;8.13;92.79;96191.59;5044741;28;20208;-79
2021/10/26 07:09:01;;;;;;;5.93;3.30;;;;;;;8.24;92.36;96195.94;5048045;28;20210;-79
2021/10/26 07:11:26;;;;;;;5.43;3.50;;;;;;;8.28;92.44;96199.09;5042581;28;20312;-80
2021/10/26 07:13:51;;;;;;;6.67;3.80;;;;;;;8.30;91.93;96194.63;5042505;28;20197;-80
2021/10/26 07:16:17;;;;;;;5.70;3.53;;;;;;;8.30;92.20;96192.84;5047556;28;20178;-80
2021/10/26 07:18:42;;;;;;;9.57;3.77;;;;;;;8.31;92.26;96197.13;5054051;28;20556;-81
2021/10/26 07:21:07;;;;;;;4.90;3.67;;;;;;;8.32;92.48;96203.13;5058985;28;20185;-81
2021/10/26 07:23:34;;;;;;;8.17;3.77;;;;;;;8.37;92.36;96203.59;5066044;28;20192;-80
2021/10/26 07:26:00;;;;;;;7.77;3.97;;;;;;;8.41;92.04;96205.03;5034375;28;20213;-79
2021/10/26 07:28:25;;;;;;;5.07;3.30;;;;;;;8.47;91.90;96202.75;5042607;28;20209;-79
2021/10/26 07:30:51;;;;;;;6.10;3.23;;;;;;;8.54;91.51;96210.88;5055635;28;20178;-79
2021/10/26 07:33:19;;;;;;;4.77;3.17;;;;;;;8.63;90.50;96215.34;5043618;28;20182;-81
2021/10/26 07:35:47;;;;;;;4.80;3.20;;;;;;;8.73;90.27;96215.47;5036523;28;20205;-79
2021/10/26 07:38:16;;;;;;;4.53;2.77;;;;;;;8.89;90.12;96221.09;5035242;28;20205;-78
2021/10/26 07:40:41;;;;;;;5.00;2.83;;;;;;;8.93;89.07;96217.31;5051276;28;20208;-79
2021/10/26 07:43:06;;;;;;;6.33;3.37;;;;;;;9.07;88.81;96224.81;5043309;28;20190;-77
2021/10/26 07:45:32;;;;;;;5.60;3.03;;;;;;;9.25;88.82;96219.94;5050659;28;20228;-80
2021/10/26 07:47:57;;;;;;;5.40;3.20;;;;;;;9.35;87.89;96223.41;5044916;28;20241;-81
2021/10/26 07:50:23;;;;;;;5.97;3.23;;;;;;;9.51;87.06;96227.38;5058219;28;20181;-77
2021/10/26 07:52:48;;;;;;;5.43;3.23;;;;;;;9.67;86.33;96226.97;5033124;28;20186;-77
2021/10/26 07:55:14;;;;;;;5.03;3.07;;;;;;;9.75;85.48;96232.34;5044453;28;20182;-78
2021/10/26 07:57:40;;;;;;;6.33;2.97;;;;;;;9.76;84.77;96236.56;5031112;28;20186;-77
2021/10/26 08:00:06;;;;;;;8.13;3.60;;;;;;;9.84;84.14;96224.63;5045026;28;20206;-78
2021/10/26 08:02:31;;;;;;;6.80;2.80;;;;;;;9.86;83.79;96229.69;5036935;28;20178;-77
2021/10/26 08:04:57;;;;;;;6.33;2.47;;;;;;;9.81;83.50;96226.66;5030506;28;20198;-78
2021/10/26 08:07:23;;;;;;;5.83;3.03;;;;;;;9.98;83.65;96226.06;5016215;28;20225;-77
2021/10/26 08:09:55;;;;;;;9.07;2.73;;;;;;;10.02;83.39;96232.66;5037305;28;20238;-78
2021/10/26 08:12:22;;;;;;;6.20;2.47;;;;;;;9.87;83.16;96224.38;5051056;28;20262;-77
2021/10/26 08:14:48;;;;;;;6.23;2.40;;;;;;;9.89;83.07;96225.09;5030284;28;20566;-76
2021/10/26 08:17:13;;;;;;;3.67;2.57;;;;;;;9.87;82.97;96234.75;5027360;28;20180;-78
2021/10/26 08:19:43;;;;;;;5.13;2.30;;;;;;;9.93;83.11;96243.78;5030750;28;20225;-77
2021/10/26 08:22:13;;;;;;;5.10;2.53;;;;;;;10.00;83.38;96234.56;5050366;28;20259;-78
2021/10/26 08:24:40;;;;;;;6.80;2.87;;;;;;;10.07;83.11;96240.03;5043127;28;20197;-78
2021/10/26 08:27:08;;;;;;;3.63;2.73;;;;;;;10.10;82.93;96240.63;5038944;28;20213;-78
2021/10/26 08:37:39;;;;;;;4.60;2.30;;;;;;;10.50;80.36;96245.09;5052735;28;20305;-79
2021/10/26 08:40:05;;;;;;;4.93;2.40;;;;;;;10.62;80.04;96246.66;5040723;28;20202;-79
2021/10/26 08:42:31;;;;;;;4.30;2.27;;;;;;;10.75;79.93;96241.22;5042979;28;20227;-79
2021/10/26 08:44:57;;;;;;;3.77;2.67;;;;;;;10.80;78.84;96238.25;5050070;28;20292;-80
2021/10/26 08:47:22;;;;;;;4.07;2.33;;;;;;;10.88;78.41;96236.63;5044416;28;20194;-78
2021/10/26 08:49:51;;;;;;;4.00;2.20;;;;;;;10.96;78.20;96235.97;5022152;28;20294;-78
2021/10/26 08:52:16;;;;;;;3.47;2.10;;;;;;;10.96;77.22;96238.56;5019530;28;20226;-78
2021/10/26 08:54:41;;;;;;;3.90;2.10;;;;;;;10.95;77.16;96242.91;5051462;28;20665;-78
2021/10/26 08:57:06;;;;;;;4.47;1.87;;;;;;;10.89;77.03;96237.47;5045507;28;20650;-78
2021/10/26 08:59:32;;;;;;;4.47;2.10;;;;;;;10.84;77.68;96239.63;5049253;28;20204;-79
2021/10/26 09:02:00;;;;;;;8.07;4.47;;;;;;;10.96;77.66;96244.59;5025609;28;20179;-79
2021/10/26 09:04:33;;;;;;;8.17;4.60;;;;;;;11.03;77.85;96245.69;5056180;28;20307;-78
2021/10/26 09:07:04;;;;;;;6.90;3.50;;;;;;;11.13;77.39;96234.47;5052638;28;20182;-79
2021/10/26 09:09:30;;;;;;;5.87;2.47;;;;;;;11.07;76.89;96241.88;5040417;28;20248;-79
2021/10/26 09:17:27;;;;;;;5.47;2.60;;;;;;;11.30;75.70;96242.44;5058146;28;20192;-79
2021/10/26 09:19:57;;;;;;;5.07;2.60;;;;;;;11.34;75.20;96243.00;5048779;28;20433;-78
2021/10/26 09:22:24;;;;;;;8.70;2.77;;;;;;;11.48;75.41;96239.19;5066782;28;20265;-79
2021/10/26 09:24:55;;;;;;;4.70;2.83;;;;;;;11.53;75.18;96239.59;5048115;28;20225;-78
2021/10/26 09:27:21;;;;;;;4.40;3.00;;;;;;;11.56;75.71;96247.13;5055199;28;20690;-81
2021/10/26 09:29:49;;;;;;;4.57;3.00;;;;;;;11.63;75.25;96250.81;5054280;28;20213;-79
2021/10/26 09:32:17;;;;;;;7.13;4.10;;;;;;;11.40;75.48;96247.69;5048493;28;20202;-80
2021/10/26 09:34:53;;;;;;;5.97;3.60;;;;;;;11.51;75.66;96247.53;5030197;28;20528;-80
2021/10/26 09:37:18;;;;;;;5.07;3.00;;;;;;;11.53;75.64;96248.22;5052881;28;20237;-81
2021/10/26 09:39:52;;;;;;;3.67;2.60;;;;;;;11.71;75.31;96252.75;5050434;28;20232;-80
2021/10/26 09:42:17;;;;;;;4.93;2.30;;;;;;;11.79;74.97;96253.69;5053486;28;20197;-81
2021/10/26 09:44:51;;;;;;;3.83;2.10;;;;;;;11.66;74.11;96255.78;5034609;28;20583;-79
2021/10/26 09:47:23;;;;;;;5.13;2.07;;;;;;;11.76;74.33;96258.38;5042408;28;20194;-79
2021/10/26 09:50:00;;;;;;;3.57;1.77;;;;;;;11.87;73.69;96258.25;5051357;28;20571;-78
2021/10/26 09:52:26;;;;;;;2.80;1.80;;;;;;;11.84;73.26;96254.16;5033861;28;20185;-78
2021/10/26 09:55:28;;;;;;;6.77;2.00;;;;;;;12.03;73.67;96258.53;5037761;28;20177;-78
2021/10/26 09:58:05;;;;;;;3.87;2.40;;;;;;;12.07;72.83;96267.69;5044613;28;20202;-78
2021/10/26 10:00:34;;;;;;;4.17;1.70;;;;;;;12.04;72.90;96264.53;5062084;28;20213;-78
2021/10/26 10:03:03;;;;;;;3.83;2.10;;;;;;;12.01;73.74;96270.00;5052912;28;20292;-80
2021/10/26 10:05:30;;;;;;;3.73;1.93;;;;;;;12.02;73.92;96262.09;5052047;28;20571;-78
2021/10/26 10:07:56;;;;;;;4.70;1.97;;;;;;;12.05;74.36;96261.78;5050398;28;20205;-77
2021/10/26 10:10:34;;;;;;;4.00;1.83;;;;;;;12.19;73.79;96273.53;5031574;28;20181;-78
2021/10/26 10:13:02;;;;;;;2.73;1.60;;;;;;;12.14;73.43;96270.56;5033745;28;20190;-79
2021/10/26 10:15:28;;;;;;;2.47;1.70;;;;;;;12.12;73.55;96268.09;5039851;28;20186;-78
2021/10/26 10:17:55;;;;;;;2.60;1.50;;;;;;;12.22;73.15;96273.28;5022850;28;20217;-77
2021/10/26 10:20:20;;;;;;;2.67;1.40;;;;;;;12.28;72.76;96269.28;5049962;28;20720;-77
2021/10/26 10:22:46;;;;;;;1.80;1.43;;;;;;;12.14;73.45;96270.56;5021392;28;20189;-80
2021/10/26 10:25:11;;;;;;;2.83;1.70;;;;;;;12.26;72.17;96266.00;5033369;28;20284;-77
2021/10/26 10:27:39;;;;;;;2.47;1.77;;;;;;;12.18;73.22;96270.13;5032594;28;20195;-78
2021/10/26 10:30:09;;;;;;;4.13;1.67;;;;;;;12.43;72.48;96263.50;5036050;28;20264;-78
2021/10/26 10:32:34;;;;;;;2.63;1.47;;;;;;;12.47;72.01;96267.47;5039062;28;20186;-78
2021/10/26 10:35:00;;;;;;;2.23;1.40;;;;;;;12.68;72.06;96261.22;5048998;28;20559;-77
2021/10/26 10:37:28;;;;;;;2.33;1.30;;;;;;;12.66;72.03;96258.78;5042531;28;20192;-77
2021/10/26 10:40:02;;;;;;;4.03;1.50;;;;;;;12.67;71.57;96255.19;5030611;28;20289;-78
2021/10/26 10:42:30;;;;;;;2.83;1.20;;;;;;;12.73;71.17;96259.84;5047682;28;20218;-78
2021/10/26 10:45:01;;;;;;;3.20;1.50;;;;;;;12.71;71.10;96256.53;5032923;28;20605;-78
2021/10/26 10:47:40;;;;;;;2.90;1.60;;;;;;;12.46;70.84;96265.84;5045176;28;20198;-78
2021/10/26 10:50:27;;;;;;;2.93;1.57;;;;;;;12.45;70.01;96263.34;5035233;28;20185;-78
2021/10/26 10:53:06;;;;;;;6.60;1.70;;;;;;;12.54;70.52;96265.09;5047159;28;20197;-77
2021/10/26 10:55:33;;;;;;;5.53;1.80;;;;;;;12.37;70.27;96266.69;5039444;28;20193;-78
2021/10/26 10:58:23;;;;;;;5.43;1.90;;;;;;;12.51;70.57;96275.00;5031731;28;20228;-77
2021/10/26 11:00:49;;;;;;;2.97;1.53;;;;;;;12.43;70.35;96263.50;5040172;28;20232;-78
2021/10/26 11:03:34;;;;;;;2.63;1.40;;;;;;;12.62;70.20;96267.81;5044105;28;20186;-77
2021/10/26 11:06:00;;;;;;;2.43;1.87;;;;;;;12.60;70.71;96266.31;5022356;28;20750;-77
2021/10/26 11:08:57;;;;;;;3.67;1.87;;;;;;;12.70;70.32;96267.09;5049076;28;20210;-78
2021/10/26 11:11:23;;;;;;;2.83;1.37;;;;;;;12.63;70.72;96264.28;5029692;28;20213;-78
2021/10/26 11:14:19;;;;;;;5.50;2.70;;;;;;;12.74;70.09;96265.88;5028851;28;20771;-78
2021/10/26 11:16:44;;;;;;;5.90;2.30;;;;;;;12.75;70.02;96262.31;5032502;28;20186;-78
2021/10/26 11:19:45;;;;;;;3.30;2.07;;;;;;;13.12;69.52;96270.06;5039919;28;20545;-78
2021/10/26 11:22:54;;;;;;;6.20;2.00;;;;;;;12.93;69.62;96259.75;5023027;28;20232;-78
2021/10/26 11:25:36;;;;;;;4.40;1.80;;;;;;;13.04;69.08;96268.19;5027798;28;20217;-78
2021/10/26 11:28:15;;;;;;;3.80;1.73;;;;;;;12.95;68.96;96258.63;5016714;28;20215;-79
2021/10/26 11:30:44;;;;;;;4.23;1.47;;;;;;;13.10;69.55;96266.78;5050873;28;20188;-78
2021/10/26 11:33:09;;;;;;;4.40;1.60;;;;;;;13.39;68.14;96264.03;5023380;28;20183;-78
2021/10/26 11:35:49;;;;;;;3.37;2.10;;;;;;;13.15;67.86;96269.78;5044981;28;20454;-78
2021/10/26 11:38:18;;;;;;;4.17;1.80;;;;;;;13.15;67.58;96269.78;5023577;28;20293;-79
2021/10/26 11:41:02;;;;;;;3.97;1.80;;;;;;;13.11;66.69;96272.84;5032413;28;20259;-79
2021/10/26 11:43:47;;;;;;;4.57;1.87;;;;;;;12.85;66.71;96267.47;5032628;28;20675;-79
2021/10/26 11:46:25;;;;;;;5.63;1.63;;;;;;;12.98;67.75;96262.72;5037726;28;20225;-81
2021/10/26 11:48:52;;;;;;;3.17;1.60;;;;;;;12.85;66.65;96264.88;5048835;28;20206;-80
2021/10/26 11:51:24;;;;;;;3.10;1.70;;;;;;;12.93;66.64;96260.56;5042835;28;20728;-80